createdAt,value
2022-09-14T00:00:02.769Z,3.72
2022-09-14T00:00:15.153Z,3.88
2022-09-14T00:00:27.046Z,4.63
2022-09-14T00:00:42.091Z,4.00
2022-09-14T00:01:14.358Z,4.43
2022-09-14T00:01:28.591Z,3.60
2022-09-14T00:01:43.787Z,4.25
2022-09-14T00:01:55.904Z,5.07
2022-09-14T00:02:08.020Z,4.50
2022-09-14T00:02:20.182Z,5.13
2022-09-14T00:02:32.332Z,5.20
2022-09-14T00:02:46.664Z,4.32
2022-09-14T00:02:59.245Z,3.40
2022-09-14T00:03:11.725Z,3.33
2022-09-14T00:03:23.872Z,4.05
2022-09-14T00:03:36.622Z,5.72
2022-09-14T00:03:52.918Z,6.20
2022-09-14T00:04:08.626Z,6.97
2022-09-14T00:04:20.527Z,8.45
2022-09-14T00:04:32.482Z,9.52
2022-09-14T00:04:44.369Z,6.72
2022-09-14T00:04:56.242Z,6.70
2022-09-14T00:05:08.501Z,4.63
2022-09-14T00:05:20.475Z,4.28
2022-09-14T00:05:35.090Z,4.80
2022-09-14T00:05:47.605Z,5.88
2022-09-14T00:06:10.992Z,5.72
2022-09-14T00:06:22.945Z,3.83
2022-09-14T00:06:35.438Z,3.70
2022-09-14T00:06:47.780Z,4.15
2022-09-14T00:06:59.703Z,4.88
2022-09-14T00:07:11.580Z,4.85
2022-09-14T00:07:23.463Z,4.30
2022-09-14T00:07:35.345Z,3.83
2022-09-14T00:07:47.578Z,4.50
2022-09-14T00:07:59.468Z,5.05
2022-09-14T00:08:12.182Z,4.70
2022-09-14T00:08:24.034Z,4.72
2022-09-14T00:08:36.331Z,5.00
2022-09-14T00:08:52.995Z,4.85
2022-09-14T00:09:08.567Z,5.13
2022-09-14T00:09:23.134Z,4.93
2022-09-14T00:09:35.101Z,4.45
2022-09-14T00:09:47.297Z,5.32
2022-09-14T00:09:59.244Z,4.57
2022-09-14T00:10:11.199Z,4.93
2022-09-14T00:10:23.409Z,5.13
2022-09-14T00:10:39.889Z,5.63
2022-09-14T00:10:51.786Z,5.75
2022-09-14T00:11:06.402Z,5.78
2022-09-14T00:11:19.345Z,4.85
2022-09-14T00:11:32.884Z,4.50
2022-09-14T00:11:45.230Z,5.38
2022-09-14T00:11:57.174Z,5.47
2022-09-14T00:12:10.228Z,4.10
2022-09-14T00:12:22.168Z,4.15
2022-09-14T00:12:34.046Z,5.13
2022-09-14T00:12:45.958Z,4.60
2022-09-14T00:12:58.148Z,4.05
2022-09-14T00:13:12.048Z,3.33
2022-09-14T00:13:23.937Z,5.50
2022-09-14T00:13:36.369Z,7.25
2022-09-14T00:13:49.002Z,6.25
2022-09-14T00:14:02.336Z,4.28
2022-09-14T00:14:15.401Z,5.00
2022-09-14T00:14:27.290Z,5.47
2022-09-14T00:14:39.933Z,6.50
2022-09-14T00:14:51.828Z,6.85
2022-09-14T00:15:04.570Z,6.70
2022-09-14T00:15:16.603Z,6.60
2022-09-14T00:15:28.517Z,6.78
2022-09-14T00:15:43.341Z,5.70
2022-09-14T00:15:55.248Z,5.95
2022-09-14T00:16:12.321Z,4.65
2022-09-14T00:16:28.897Z,4.53
2022-09-14T00:16:41.874Z,4.32
2022-09-14T00:16:53.893Z,4.47
2022-09-14T00:17:05.972Z,5.18
2022-09-14T00:17:17.940Z,5.13
2022-09-14T00:17:29.844Z,3.53
2022-09-14T00:17:41.731Z,3.60
2022-09-14T00:17:53.596Z,3.92
2022-09-14T00:18:07.116Z,5.07
2022-09-14T00:18:19.004Z,5.47
2022-09-14T00:18:31.657Z,4.60
2022-09-14T00:18:44.438Z,5.28
2022-09-14T00:19:09.091Z,4.70
2022-09-14T00:19:26.781Z,3.50
2022-09-14T00:19:38.693Z,3.75
2022-09-14T00:19:50.957Z,4.32
2022-09-14T00:20:03.006Z,3.97
2022-09-14T00:20:15.067Z,3.75
2022-09-14T00:20:26.940Z,4.13
2022-09-14T00:20:38.865Z,4.78
2022-09-14T00:20:50.751Z,4.25
2022-09-14T00:21:05.240Z,4.60
2022-09-14T00:21:17.153Z,4.40
2022-09-14T00:21:29.087Z,5.03
2022-09-14T00:21:42.457Z,4.80
2022-09-14T00:21:57.115Z,4.80
2022-09-14T00:22:09.143Z,5.90
2022-09-14T00:22:21.087Z,6.00
2022-09-14T00:22:32.980Z,4.80
2022-09-14T00:22:44.858Z,5.10
2022-09-14T00:22:56.888Z,5.70
2022-09-14T00:23:08.788Z,5.15
2022-09-14T00:23:20.671Z,4.38
2022-09-14T00:23:35.463Z,3.58
2022-09-14T00:23:47.487Z,4.10
2022-09-14T00:23:59.407Z,4.97
2022-09-14T00:24:12.226Z,4.53
2022-09-14T00:24:26.059Z,4.45
2022-09-14T00:24:38.056Z,5.55
2022-09-14T00:24:50.376Z,5.97
2022-09-14T00:25:02.319Z,6.70
2022-09-14T00:25:14.372Z,6.00
2022-09-14T00:25:26.902Z,5.15
2022-09-14T00:25:38.819Z,6.13
2022-09-14T00:25:50.864Z,6.22
2022-09-14T00:26:05.142Z,4.00
2022-09-14T00:26:22.593Z,3.75
2022-09-14T00:26:35.199Z,3.92
2022-09-14T00:26:47.137Z,4.63
2022-09-14T00:26:59.157Z,4.93
2022-09-14T00:27:11.036Z,4.47
2022-09-14T00:27:23.109Z,4.93
2022-09-14T00:27:34.997Z,4.63
2022-09-14T00:27:46.892Z,5.43
2022-09-14T00:27:58.787Z,5.53
2022-09-14T00:28:11.864Z,5.40
2022-09-14T00:28:23.753Z,6.72
2022-09-14T00:28:51.325Z,6.72
2022-09-14T00:29:04.847Z,5.07
2022-09-14T00:29:17.258Z,6.03
2022-09-14T00:29:30.408Z,5.63
2022-09-14T00:29:42.359Z,5.93
2022-09-14T00:29:54.299Z,5.22
2022-09-14T00:30:06.990Z,5.25
2022-09-14T00:30:19.509Z,4.55
2022-09-14T00:30:31.571Z,4.85
2022-09-14T00:30:43.455Z,4.47
2022-09-14T00:30:55.334Z,3.95
2022-09-14T00:31:08.149Z,4.35
2022-09-14T00:31:21.579Z,4.90
2022-09-14T00:31:36.181Z,4.57
2022-09-14T00:31:48.491Z,4.53
2022-09-14T00:32:00.614Z,5.50
2022-09-14T00:32:12.706Z,5.80
2022-09-14T00:32:24.675Z,5.05
2022-09-14T00:32:36.549Z,5.68
2022-09-14T00:32:48.413Z,6.78
2022-09-14T00:33:00.350Z,6.85
2022-09-14T00:33:12.649Z,5.95
2022-09-14T00:33:24.668Z,5.65
2022-09-14T00:33:37.280Z,4.85
2022-09-14T00:33:50.800Z,5.63
2022-09-14T00:34:04.900Z,7.18
2022-09-14T00:34:17.835Z,7.32
2022-09-14T00:34:30.084Z,6.13
2022-09-14T00:34:41.960Z,5.78
2022-09-14T00:34:53.896Z,6.18
2022-09-14T00:35:06.829Z,6.82
2022-09-14T00:35:19.110Z,7.82
2022-09-14T00:35:31.013Z,6.50
2022-09-14T00:35:43.036Z,5.53
2022-09-14T00:35:54.920Z,5.93
2022-09-14T00:36:12.574Z,7.28
2022-09-14T00:36:27.413Z,7.47
2022-09-14T00:36:42.859Z,4.93
2022-09-14T00:36:55.714Z,6.40
2022-09-14T00:37:07.681Z,7.30
2022-09-14T00:37:19.641Z,6.88
2022-09-14T00:37:31.580Z,4.97
2022-09-14T00:37:43.576Z,6.05
2022-09-14T00:37:55.525Z,7.05
2022-09-14T00:38:09.716Z,6.60
2022-09-14T00:38:21.605Z,6.45
2022-09-14T00:38:33.660Z,5.78
2022-09-14T00:38:46.677Z,5.95
2022-09-14T00:39:00.493Z,4.22
2022-09-14T00:39:13.330Z,5.03
2022-09-14T00:39:25.388Z,5.10
2022-09-14T00:39:37.474Z,4.05
2022-09-14T00:39:50.281Z,4.85
2022-09-14T00:40:04.421Z,4.57
2022-09-14T00:40:16.775Z,4.90
2022-09-14T00:40:29.043Z,6.82
2022-09-14T00:40:40.935Z,6.88
2022-09-14T00:41:00.008Z,7.15
2022-09-14T00:41:17.492Z,6.82
2022-09-14T00:41:34.739Z,7.30
2022-09-14T00:41:48.905Z,5.82
2022-09-14T00:42:00.800Z,6.30
2022-09-14T00:42:16.380Z,6.57
2022-09-14T00:42:28.293Z,6.75
2022-09-14T00:42:40.184Z,7.55
2022-09-14T00:42:52.055Z,6.65
2022-09-14T00:43:12.634Z,7.43
2022-09-14T00:43:24.949Z,4.93
2022-09-14T00:43:57.459Z,4.60
2022-09-14T00:44:12.571Z,5.90
2022-09-14T00:44:24.386Z,7.70
2022-09-14T00:44:36.207Z,7.63
2022-09-14T00:44:48.042Z,6.18
2022-09-14T00:45:08.162Z,6.22
2022-09-14T00:45:21.982Z,6.68
2022-09-14T00:45:33.972Z,5.28
2022-09-14T00:45:45.892Z,5.30
2022-09-14T00:46:01.623Z,4.97
2022-09-14T00:46:13.717Z,5.75
2022-09-14T00:46:27.784Z,6.15
2022-09-14T00:46:48.377Z,4.53
2022-09-14T00:47:02.604Z,4.65
2022-09-14T00:47:16.848Z,4.40
2022-09-14T00:47:31.774Z,4.95
2022-09-14T00:47:43.906Z,7.63
2022-09-14T00:47:56.700Z,7.15
2022-09-14T00:48:09.415Z,3.92
2022-09-14T00:48:24.696Z,4.18
2022-09-14T00:48:36.707Z,5.03
2022-09-14T00:48:48.999Z,5.65
2022-09-14T00:49:02.887Z,5.85
2022-09-14T00:49:29.891Z,6.03
2022-09-14T00:49:43.525Z,5.93
2022-09-14T00:49:55.657Z,6.05
2022-09-14T00:50:08.024Z,5.47
2022-09-14T00:50:20.991Z,4.95
2022-09-14T00:50:33.015Z,3.75
2022-09-14T00:50:45.794Z,5.03
2022-09-14T00:50:57.831Z,4.47
2022-09-14T00:51:10.168Z,5.53
2022-09-14T00:51:22.450Z,8.30
2022-09-14T00:51:37.652Z,8.48
2022-09-14T00:51:52.317Z,6.10
2022-09-14T00:52:16.048Z,4.63
2022-09-14T00:52:32.812Z,3.78
2022-09-14T00:52:49.165Z,4.93
2022-09-14T00:53:01.203Z,5.80
2022-09-14T00:53:13.113Z,5.93
2022-09-14T00:53:25.142Z,5.20
2022-09-14T00:53:37.150Z,5.47
2022-09-14T00:53:49.830Z,6.18
2022-09-14T00:54:03.516Z,6.60
2022-09-14T00:54:15.411Z,7.63
2022-09-14T00:54:27.351Z,7.97
2022-09-14T00:54:42.361Z,5.20
2022-09-14T00:54:57.219Z,5.25
2022-09-14T00:55:12.811Z,5.88
2022-09-14T00:55:25.463Z,6.60
2022-09-14T00:55:37.684Z,7.13
2022-09-14T00:55:51.075Z,6.88
2022-09-14T00:56:03.151Z,7.03
2022-09-14T00:56:15.386Z,6.10
2022-09-14T00:56:27.323Z,5.35
2022-09-14T00:56:39.352Z,6.30
2022-09-14T00:56:51.529Z,5.93
2022-09-14T00:57:03.957Z,6.13
2022-09-14T00:57:17.435Z,4.90
2022-09-14T00:57:37.136Z,4.78
2022-09-14T00:57:52.029Z,5.40
2022-09-14T00:58:03.955Z,5.72
2022-09-14T00:58:15.852Z,6.60
2022-09-14T00:58:27.980Z,6.83
2022-09-14T00:58:41.296Z,6.50
2022-09-14T00:58:57.539Z,6.43
2022-09-14T00:59:16.130Z,4.55
2022-09-14T00:59:31.361Z,5.15
2022-09-14T00:59:44.169Z,6.20
2022-09-14T00:59:57.203Z,6.03
2022-09-14T01:00:11.200Z,5.55
2022-09-14T01:00:27.257Z,5.72
2022-09-14T01:00:39.183Z,5.68
2022-09-14T01:00:51.150Z,5.18
2022-09-14T01:01:03.416Z,5.72
2022-09-14T01:01:15.970Z,6.55
2022-09-14T01:01:28.619Z,5.82
2022-09-14T01:01:41.087Z,4.70
2022-09-14T01:01:53.480Z,4.78
2022-09-14T01:02:08.991Z,4.88
2022-09-14T01:02:23.146Z,3.70
2022-09-14T01:02:35.346Z,4.88
2022-09-14T01:02:47.406Z,6.03
2022-09-14T01:03:00.021Z,5.97
2022-09-14T01:03:11.900Z,4.82
2022-09-14T01:03:23.773Z,4.50
2022-09-14T01:03:36.491Z,4.65
2022-09-14T01:03:48.611Z,4.87
2022-09-14T01:04:00.627Z,5.05
2022-09-14T01:04:12.509Z,4.35
2022-09-14T01:04:24.480Z,4.55
2022-09-14T01:04:37.153Z,4.28
2022-09-14T01:04:49.886Z,4.47
2022-09-14T01:05:02.013Z,3.92
2022-09-14T01:05:14.814Z,3.85
2022-09-14T01:05:42.599Z,4.53
2022-09-14T01:06:26.152Z,6.25
2022-09-14T01:06:44.320Z,5.80
2022-09-14T01:06:59.985Z,4.07
2022-09-14T01:07:29.836Z,3.55
2022-09-14T01:08:05.927Z,4.95
2022-09-14T01:08:31.269Z,4.63
2022-09-14T01:08:49.016Z,4.50
2022-09-14T01:09:18.735Z,4.70
2022-09-14T01:10:07.613Z,5.53
2022-09-14T01:10:47.035Z,5.38
2022-09-14T01:11:11.757Z,3.28
2022-09-14T01:11:35.639Z,5.40
2022-09-14T01:11:59.310Z,4.75
2022-09-14T01:12:55.489Z,4.25
2022-09-14T01:13:27.251Z,6.07
2022-09-14T01:13:47.787Z,4.90
2022-09-14T01:14:42.776Z,3.92
2022-09-14T01:15:15.176Z,5.90
2022-09-14T01:15:45.180Z,4.60
2022-09-14T01:16:02.731Z,3.78
2022-09-14T01:16:30.911Z,5.03
2022-09-14T01:17:09.005Z,5.20
2022-09-14T01:17:26.699Z,6.82
2022-09-14T01:18:00.001Z,5.15
2022-09-14T01:18:30.154Z,4.57
2022-09-14T01:18:48.411Z,3.42
2022-09-14T01:19:06.255Z,3.65
2022-09-14T01:19:42.760Z,4.25
2022-09-14T01:20:00.487Z,5.30
2022-09-14T01:20:38.609Z,5.18
2022-09-14T01:21:10.111Z,3.10
2022-09-14T01:21:32.207Z,5.53
2022-09-14T01:21:44.897Z,4.25
2022-09-14T01:22:09.080Z,3.95
2022-09-14T01:22:32.481Z,5.22
2022-09-14T01:22:52.790Z,4.05
2022-09-14T01:23:16.730Z,3.28
2022-09-14T01:23:50.515Z,3.83
2022-09-14T01:24:23.156Z,5.25
2022-09-14T01:25:02.342Z,5.38
2022-09-14T01:25:53.268Z,5.05
2022-09-14T01:26:22.983Z,4.45
2022-09-14T01:27:29.264Z,5.50
2022-09-14T01:27:44.013Z,7.15
2022-09-14T01:28:02.198Z,6.63
2022-09-14T01:28:22.570Z,3.30
2022-09-14T01:28:42.571Z,4.15
2022-09-14T01:29:22.376Z,4.78
2022-09-14T01:29:40.010Z,4.85
2022-09-14T01:30:01.678Z,5.20
2022-09-14T01:30:23.930Z,5.33
2022-09-14T01:30:38.866Z,3.38
2022-09-14T01:30:53.990Z,3.95
2022-09-14T01:31:13.196Z,4.90
2022-09-14T01:31:37.748Z,4.50
2022-09-14T01:31:58.864Z,6.90
2022-09-14T01:32:19.693Z,7.05
2022-09-14T01:32:35.352Z,5.60
2022-09-14T01:32:59.796Z,5.18
2022-09-14T01:33:34.697Z,7.18
2022-09-14T01:33:55.414Z,4.55
2022-09-14T01:34:32.937Z,4.90
2022-09-14T01:34:57.820Z,4.25
2022-09-14T01:35:49.106Z,3.92
2022-09-14T01:36:04.313Z,4.22
2022-09-14T01:36:17.778Z,3.40
2022-09-14T01:36:34.884Z,4.18
2022-09-14T01:36:53.089Z,6.07
2022-09-14T01:37:35.034Z,6.70
2022-09-14T01:37:55.912Z,3.65
2022-09-14T01:38:12.402Z,3.15
2022-09-14T01:38:32.036Z,3.92
2022-09-14T01:38:48.923Z,5.30
2022-09-14T01:39:02.328Z,5.75
2022-09-14T01:39:16.532Z,5.60
2022-09-14T01:39:31.569Z,7.15
2022-09-14T01:39:50.154Z,5.85
2022-09-14T01:40:13.105Z,4.35
2022-09-14T01:40:31.003Z,4.50
2022-09-14T01:40:47.084Z,4.32
2022-09-14T01:41:02.995Z,4.20
2022-09-14T01:41:20.266Z,3.10
2022-09-14T01:41:33.878Z,3.72
2022-09-14T01:41:47.724Z,3.80
2022-09-14T01:42:01.445Z,5.03
2022-09-14T01:42:14.696Z,6.57
2022-09-14T01:42:28.750Z,5.28
2022-09-14T01:42:44.414Z,3.90
2022-09-14T01:43:04.081Z,5.28
2022-09-14T01:43:26.414Z,5.20
2022-09-14T01:43:42.521Z,4.22
2022-09-14T01:44:00.316Z,4.45
2022-09-14T01:44:25.379Z,4.10
2022-09-14T01:44:41.911Z,3.80
2022-09-14T01:45:00.131Z,4.40
2022-09-14T01:45:16.472Z,4.68
2022-09-14T01:45:30.652Z,4.60
2022-09-14T01:45:49.721Z,4.60
2022-09-14T01:46:16.315Z,8.13
2022-09-14T01:46:39.874Z,4.97
2022-09-14T01:46:57.040Z,4.65
2022-09-14T01:47:16.558Z,4.43
2022-09-14T01:47:36.671Z,5.22
2022-09-14T01:47:54.786Z,5.97
2022-09-14T01:48:10.532Z,6.80
2022-09-14T01:48:30.621Z,5.70
2022-09-14T01:49:04.796Z,5.38
2022-09-14T01:49:32.165Z,5.75
2022-09-14T01:49:49.223Z,4.07
2022-09-14T01:50:11.717Z,4.90
2022-09-14T01:50:34.008Z,4.90
2022-09-14T01:50:53.015Z,3.85
2022-09-14T01:51:12.517Z,5.05
2022-09-14T01:51:36.252Z,3.72
2022-09-14T01:51:51.864Z,3.72
2022-09-14T01:52:16.471Z,4.35
2022-09-14T01:52:39.655Z,3.60
2022-09-14T01:52:59.503Z,3.70
2022-09-14T01:53:20.045Z,6.70
2022-09-14T01:53:43.589Z,3.95
2022-09-14T01:54:12.632Z,6.50
2022-09-14T01:54:33.711Z,4.82
2022-09-14T01:54:54.764Z,5.53
2022-09-14T01:55:13.525Z,4.25
2022-09-14T01:55:31.714Z,3.90
2022-09-14T01:55:49.010Z,3.67
2022-09-14T01:56:07.593Z,6.75
2022-09-14T01:56:26.571Z,6.68
2022-09-14T01:56:43.119Z,5.13
2022-09-14T01:57:00.340Z,4.50
2022-09-14T01:57:21.715Z,4.40
2022-09-14T01:57:36.134Z,5.97
2022-09-14T01:58:11.660Z,5.88
2022-09-14T01:58:32.591Z,6.13
2022-09-14T01:58:50.265Z,6.30
2022-09-14T01:59:05.130Z,7.15
2022-09-14T01:59:28.984Z,6.82
2022-09-14T01:59:46.172Z,4.60
2022-09-14T02:00:02.320Z,6.00
2022-09-14T02:00:17.564Z,7.90
2022-09-14T02:00:31.012Z,7.30
2022-09-14T02:00:46.393Z,5.78
2022-09-14T02:01:01.928Z,6.00
2022-09-14T02:01:19.866Z,5.15
2022-09-14T02:01:40.109Z,6.07
2022-09-14T02:02:00.215Z,5.68
2022-09-14T02:02:14.603Z,5.07
2022-09-14T02:02:34.546Z,5.03
2022-09-14T02:03:01.827Z,6.03
2022-09-14T02:03:18.643Z,5.78
2022-09-14T02:03:37.898Z,7.30
2022-09-14T02:03:55.535Z,5.72
2022-09-14T02:04:10.360Z,5.03
2022-09-14T02:04:39.106Z,5.70
2022-09-14T02:05:08.986Z,7.65
2022-09-14T02:05:46.045Z,6.28
2022-09-14T02:06:10.543Z,7.32
2022-09-14T02:06:34.220Z,9.07
2022-09-14T02:06:48.853Z,5.80
2022-09-14T02:07:00.814Z,6.10
2022-09-14T02:07:12.899Z,6.70
2022-09-14T02:07:24.965Z,7.65
2022-09-14T02:07:37.987Z,7.10
2022-09-14T02:07:50.000Z,6.68
2022-09-14T02:08:02.529Z,7.35
2022-09-14T02:08:14.675Z,6.57
2022-09-14T02:08:29.649Z,6.85
2022-09-14T02:08:41.861Z,5.90
2022-09-14T02:08:54.365Z,6.78
2022-09-14T02:09:10.162Z,7.47
2022-09-14T02:09:26.781Z,8.23
2022-09-14T02:09:39.603Z,8.30
2022-09-14T02:09:54.336Z,6.68
2022-09-14T02:10:11.596Z,6.13
2022-09-14T02:10:24.411Z,7.57
2022-09-14T02:10:36.703Z,8.45
2022-09-14T02:10:48.606Z,7.18
2022-09-14T02:11:01.870Z,6.43
2022-09-14T02:11:13.734Z,6.32
2022-09-14T02:11:25.880Z,6.45
2022-09-14T02:11:38.542Z,6.82
2022-09-14T02:11:50.444Z,7.35
2022-09-14T02:12:02.573Z,7.97
2022-09-14T02:12:16.087Z,6.68
2022-09-14T02:12:27.991Z,6.13
2022-09-14T02:12:40.677Z,5.57
2022-09-14T02:12:53.724Z,6.30
2022-09-14T02:13:07.063Z,7.78
2022-09-14T02:13:19.206Z,9.02
2022-09-14T02:13:31.130Z,7.97
2022-09-14T02:13:43.371Z,5.95
2022-09-14T02:13:55.578Z,6.18
2022-09-14T02:14:07.691Z,7.13
2022-09-14T02:14:19.803Z,7.82
2022-09-14T02:14:31.953Z,7.22
2022-09-14T02:14:46.086Z,6.75
2022-09-14T02:14:58.219Z,7.13
2022-09-14T02:15:12.655Z,6.88
2022-09-14T02:15:26.240Z,5.70
2022-09-14T02:15:39.433Z,6.70
2022-09-14T02:15:51.544Z,7.20
2022-09-14T02:16:03.616Z,6.95
2022-09-14T02:16:15.705Z,6.82
2022-09-14T02:16:28.212Z,6.78
2022-09-14T02:16:43.428Z,7.63
2022-09-14T02:16:55.754Z,9.25
2022-09-14T02:17:08.256Z,8.07
2022-09-14T02:17:21.163Z,7.22
2022-09-14T02:17:33.445Z,6.70
2022-09-14T02:17:45.401Z,8.40
2022-09-14T02:17:57.358Z,9.10
2022-09-14T02:18:09.244Z,10.23
2022-09-14T02:18:21.952Z,10.27
2022-09-14T02:18:33.988Z,9.18
2022-09-14T02:18:46.860Z,9.27
2022-09-14T02:19:02.036Z,8.77
2022-09-14T02:19:14.299Z,8.20
2022-09-14T02:19:31.167Z,8.05
2022-09-14T02:19:55.969Z,9.35
2022-09-14T02:20:14.141Z,9.30
2022-09-14T02:20:34.852Z,7.45
2022-09-14T02:20:54.157Z,6.63
2022-09-14T02:21:14.334Z,7.10
2022-09-14T02:21:29.303Z,7.45
2022-09-14T02:21:41.396Z,6.82
2022-09-14T02:21:53.579Z,6.85
2022-09-14T02:22:05.713Z,8.00
2022-09-14T02:22:17.686Z,7.97
2022-09-14T02:22:31.179Z,7.63
2022-09-14T02:22:43.286Z,7.82
2022-09-14T02:22:55.559Z,6.53
2022-09-14T02:23:08.076Z,7.18
2022-09-14T02:23:20.138Z,7.32
2022-09-14T02:23:32.369Z,7.10
2022-09-14T02:23:44.800Z,7.75
2022-09-14T02:23:59.018Z,6.95
2022-09-14T02:24:12.260Z,7.18
2022-09-14T02:24:24.173Z,8.23
2022-09-14T02:24:36.571Z,8.07
2022-09-14T02:24:49.243Z,8.85
2022-09-14T02:25:01.941Z,8.68
2022-09-14T02:25:14.332Z,6.93
2022-09-14T02:25:26.933Z,7.43
2022-09-14T02:25:41.044Z,8.50
2022-09-14T02:25:53.180Z,8.00
2022-09-14T02:26:05.478Z,6.25
2022-09-14T02:26:19.838Z,6.28
2022-09-14T02:26:32.486Z,7.05
2022-09-14T02:26:45.411Z,7.38
2022-09-14T02:26:58.515Z,9.05
2022-09-14T02:27:10.613Z,8.73
2022-09-14T02:27:22.782Z,8.52
2022-09-14T02:27:34.655Z,8.20
2022-09-14T02:27:48.101Z,8.23
2022-09-14T02:27:59.963Z,9.20
2022-09-14T02:28:12.235Z,10.27
2022-09-14T02:28:24.145Z,10.65
2022-09-14T02:28:36.331Z,8.30
2022-09-14T02:28:49.035Z,7.78
2022-09-14T02:29:01.094Z,7.97
2022-09-14T02:29:13.035Z,8.57
2022-09-14T02:29:24.999Z,8.48
2022-09-14T02:29:37.524Z,8.13
2022-09-14T02:29:50.123Z,8.38
2022-09-14T02:30:02.673Z,8.90
2022-09-14T02:30:16.333Z,8.38
2022-09-14T02:30:35.235Z,8.30
2022-09-14T02:31:07.721Z,9.93
2022-09-14T02:31:25.632Z,8.80
2022-09-14T02:31:54.084Z,8.48
2022-09-14T02:32:09.021Z,7.35
2022-09-14T02:32:26.734Z,7.82
2022-09-14T02:33:09.017Z,7.85
2022-09-14T02:33:59.104Z,8.50
2022-09-14T02:34:23.575Z,8.82
2022-09-14T02:35:12.262Z,8.02
2022-09-14T02:35:42.306Z,9.05
2022-09-14T02:35:57.584Z,10.30
2022-09-14T02:36:19.428Z,10.63
2022-09-14T02:36:49.150Z,8.43
2022-09-14T02:37:21.809Z,8.35
2022-09-14T02:37:57.255Z,9.02
2022-09-14T02:38:49.309Z,8.88
2022-09-14T02:39:13.191Z,10.88
2022-09-14T02:39:33.745Z,8.00
2022-09-14T02:40:24.887Z,8.45
2022-09-14T02:40:48.641Z,11.45
2022-09-14T02:41:13.829Z,8.80
2022-09-14T02:41:57.728Z,9.18
2022-09-14T02:42:46.994Z,10.85
2022-09-14T02:43:17.564Z,10.48
2022-09-14T02:43:51.020Z,8.65
2022-09-14T02:44:17.816Z,8.40
2022-09-14T02:44:38.052Z,9.00
2022-09-14T02:45:07.239Z,9.10
2022-09-14T02:45:36.843Z,8.95
2022-09-14T02:46:17.012Z,7.95
2022-09-14T02:46:41.292Z,9.88
2022-09-14T02:47:06.471Z,11.40
2022-09-14T02:47:42.725Z,8.02
2022-09-14T02:48:03.308Z,8.40
2022-09-14T02:48:17.935Z,7.55
2022-09-14T02:48:41.732Z,9.55
2022-09-14T02:49:33.260Z,9.00
2022-09-14T02:49:57.735Z,7.80
2022-09-14T02:50:09.637Z,10.30
2022-09-14T02:50:24.402Z,11.93
2022-09-14T02:51:03.199Z,10.73
2022-09-14T02:51:36.089Z,9.25
2022-09-14T02:51:56.657Z,11.57
2022-09-14T02:52:26.010Z,12.98
2022-09-14T02:53:17.162Z,8.43
2022-09-14T02:53:52.233Z,10.13
2022-09-14T02:54:11.635Z,8.50
2022-09-14T02:54:40.529Z,9.15
2022-09-14T02:54:58.933Z,9.18
2022-09-14T02:55:14.617Z,8.95
2022-09-14T02:55:31.735Z,9.70
2022-09-14T02:55:49.378Z,9.23
2022-09-14T02:56:05.919Z,8.02
2022-09-14T02:56:19.395Z,7.30
2022-09-14T02:56:32.406Z,8.23
2022-09-14T02:56:47.847Z,9.43
2022-09-14T02:57:03.739Z,8.85
2022-09-14T02:57:15.730Z,8.98
2022-09-14T02:57:27.660Z,8.75
2022-09-14T02:57:59.040Z,8.93
2022-09-14T02:58:13.011Z,13.02
2022-09-14T02:58:24.920Z,13.80
2022-09-14T02:58:44.769Z,10.95
2022-09-14T02:58:56.800Z,9.05
2022-09-14T02:59:08.713Z,9.38
2022-09-14T02:59:22.012Z,9.05
2022-09-14T02:59:33.984Z,9.25
2022-09-14T02:59:45.885Z,9.57
2022-09-14T02:59:57.814Z,8.68
2022-09-14T03:00:09.977Z,8.52
2022-09-14T03:00:21.882Z,8.93
2022-09-14T03:00:40.162Z,9.68
2022-09-14T03:00:52.282Z,9.85
2022-09-14T03:01:06.303Z,9.63
2022-09-14T03:01:20.667Z,10.00
2022-09-14T03:01:32.865Z,9.40
2022-09-14T03:01:44.871Z,7.80
2022-09-14T03:02:00.174Z,8.52
2022-09-14T03:02:12.284Z,9.30
2022-09-14T03:02:24.354Z,12.10
2022-09-14T03:02:36.358Z,13.05
2022-09-14T03:02:48.238Z,10.52
2022-09-14T03:03:03.108Z,9.85
2022-09-14T03:03:18.238Z,7.80
2022-09-14T03:03:33.504Z,7.32
2022-09-14T03:03:47.468Z,7.78
2022-09-14T03:03:59.399Z,8.65
2022-09-14T03:04:11.290Z,9.52
2022-09-14T03:04:23.256Z,9.02
2022-09-14T03:04:35.179Z,8.60
2022-09-14T03:04:47.074Z,9.48
2022-09-14T03:04:59.011Z,10.02
2022-09-14T03:05:10.943Z,10.90
2022-09-14T03:05:23.006Z,9.25
2022-09-14T03:05:35.003Z,9.02
2022-09-14T03:05:47.502Z,8.98
2022-09-14T03:05:59.473Z,9.13
2022-09-14T03:06:14.330Z,10.13
2022-09-14T03:06:28.240Z,11.27
2022-09-14T03:06:40.124Z,10.98
2022-09-14T03:06:54.735Z,11.00
2022-09-14T03:07:06.631Z,10.80
2022-09-14T03:07:18.530Z,9.25
2022-09-14T03:07:30.405Z,9.82
2022-09-14T03:07:42.325Z,10.05
2022-09-14T03:07:54.472Z,8.70
2022-09-14T03:08:07.118Z,9.90
2022-09-14T03:08:19.038Z,10.73
2022-09-14T03:08:32.264Z,10.35
2022-09-14T03:08:44.950Z,11.23
2022-09-14T03:08:56.822Z,12.40
2022-09-14T03:09:08.912Z,11.65
2022-09-14T03:09:20.915Z,9.68
2022-09-14T03:09:37.557Z,10.20
2022-09-14T03:09:49.591Z,10.52
2022-09-14T03:10:01.474Z,11.23
2022-09-14T03:10:13.451Z,11.48
2022-09-14T03:10:25.989Z,11.05
2022-09-14T03:10:42.473Z,9.00
2022-09-14T03:10:54.820Z,8.38
2022-09-14T03:11:06.764Z,8.52
2022-09-14T03:11:18.766Z,9.18
2022-09-14T03:11:30.959Z,8.88
2022-09-14T03:11:42.868Z,8.23
2022-09-14T03:11:54.750Z,8.60
2022-09-14T03:12:09.700Z,9.05
2022-09-14T03:12:24.177Z,9.18
2022-09-14T03:12:38.143Z,10.20
2022-09-14T03:12:50.055Z,11.80
2022-09-14T03:13:02.003Z,11.00
2022-09-14T03:13:16.190Z,9.50
2022-09-14T03:13:28.213Z,10.60
2022-09-14T03:13:40.199Z,11.63
2022-09-14T03:13:52.153Z,13.23
2022-09-14T03:14:04.058Z,12.85
2022-09-14T03:14:16.207Z,11.20
2022-09-14T03:14:30.985Z,9.52
2022-09-14T03:14:42.882Z,9.27
2022-09-14T03:14:54.767Z,8.52
2022-09-14T03:15:07.281Z,7.28
2022-09-14T03:15:19.300Z,7.85
2022-09-14T03:15:31.348Z,9.57
2022-09-14T03:15:43.826Z,12.77
2022-09-14T03:15:58.520Z,12.55
2022-09-14T03:16:14.048Z,8.20
2022-09-14T03:16:26.070Z,8.45
2022-09-14T03:16:38.633Z,9.20
2022-09-14T03:16:50.610Z,10.20
2022-09-14T03:17:02.500Z,9.48
2022-09-14T03:17:14.398Z,9.73
2022-09-14T03:17:26.268Z,9.43
2022-09-14T03:17:38.177Z,9.93
2022-09-14T03:17:51.309Z,10.88
2022-09-14T03:18:04.506Z,9.90
2022-09-14T03:18:18.380Z,10.27
2022-09-14T03:18:30.272Z,10.20
2022-09-14T03:18:42.672Z,9.00
2022-09-14T03:18:54.603Z,8.48
2022-09-14T03:19:06.544Z,9.35
2022-09-14T03:19:18.508Z,9.68
2022-09-14T03:19:30.836Z,10.57
2022-09-14T03:19:42.757Z,9.30
2022-09-14T03:19:54.635Z,8.63
2022-09-14T03:20:06.791Z,10.65
2022-09-14T03:20:25.822Z,11.30
2022-09-14T03:20:38.030Z,9.50
2022-09-14T03:20:49.920Z,10.45
2022-09-14T03:21:10.021Z,10.32
2022-09-14T03:21:22.053Z,10.50
2022-09-14T03:21:33.952Z,9.77
2022-09-14T03:21:45.861Z,8.80
2022-09-14T03:21:58.522Z,9.07
2022-09-14T03:22:10.419Z,11.38
2022-09-14T03:22:22.586Z,13.23
2022-09-14T03:22:34.562Z,11.00
2022-09-14T03:22:47.206Z,10.55
2022-09-14T03:22:59.784Z,10.13
2022-09-14T03:23:12.617Z,10.18
2022-09-14T03:23:24.502Z,10.10
2022-09-14T03:23:43.902Z,10.68
2022-09-14T03:23:57.712Z,12.23
2022-09-14T03:24:09.646Z,10.65
2022-09-14T03:24:21.700Z,8.68
2022-09-14T03:24:33.682Z,9.50
2022-09-14T03:24:45.577Z,10.07
2022-09-14T03:24:57.445Z,11.35
2022-09-14T03:25:09.873Z,11.57
2022-09-14T03:25:24.882Z,11.27
2022-09-14T03:25:38.804Z,10.65
2022-09-14T03:25:50.667Z,10.50
2022-09-14T03:26:07.213Z,11.52
2022-09-14T03:26:23.164Z,10.75
2022-09-14T03:26:38.143Z,9.77
2022-09-14T03:26:52.109Z,10.57
2022-09-14T03:27:04.212Z,11.15
2022-09-14T03:27:16.088Z,12.40
2022-09-14T03:27:28.016Z,11.07
2022-09-14T03:27:40.798Z,9.93
2022-09-14T03:27:54.984Z,10.48
2022-09-14T03:28:15.547Z,11.38
2022-09-14T03:28:27.432Z,9.85
2022-09-14T03:28:39.681Z,10.63
2022-09-14T03:28:53.766Z,10.93
2022-09-14T03:29:06.711Z,9.65
2022-09-14T03:29:18.584Z,9.77
2022-09-14T03:29:30.859Z,12.38
2022-09-14T03:29:42.755Z,12.85
2022-09-14T03:29:54.647Z,9.35
2022-09-14T03:30:07.833Z,9.07
2022-09-14T03:30:20.443Z,8.35
2022-09-14T03:30:33.217Z,9.48
2022-09-14T03:30:45.091Z,9.15
2022-09-14T03:31:01.609Z,8.38
2022-09-14T03:31:13.643Z,8.77
2022-09-14T03:31:26.719Z,9.48
2022-09-14T03:31:38.816Z,9.50
2022-09-14T03:31:50.773Z,8.27
2022-09-14T03:32:02.712Z,9.60
2022-09-14T03:32:14.708Z,9.93
2022-09-14T03:32:26.597Z,10.93
2022-09-14T03:32:38.634Z,12.30
2022-09-14T03:32:50.661Z,12.10
2022-09-14T03:33:03.459Z,11.68
2022-09-14T03:33:15.388Z,11.27
2022-09-14T03:33:27.331Z,12.32
2022-09-14T03:33:39.734Z,11.10
2022-09-14T03:33:56.748Z,9.98
2022-09-14T03:34:10.540Z,8.40
2022-09-14T03:34:22.514Z,8.95
2022-09-14T03:34:34.443Z,8.85
2022-09-14T03:34:46.352Z,10.05
2022-09-14T03:34:58.527Z,10.68
2022-09-14T03:35:10.978Z,9.30
2022-09-14T03:35:23.076Z,8.73